Historique des mesures à Cassis (13260), France
Quotidien Résumé Juin 29, 2017 Unités:  Métrique    US   Métrique/US
« Précédent (Jour)
Suivant (Jour) »
Quotidien Hebdomadaire Mensuel Annuel Période au choix
  Maximum: Minimum: Moyenne:
Température: TemperatureC °C 17.9 °C 20.1 °C
Point de rosée: DewpointC °C 11.6 °C 12.6 °C
Humidité: Humidity % 51 % 59 %
Vitesse du vent: 0 km/h 0 km/h 13 km/h
Rafales: 0 km/h - -
Vent:- - SW
Pression: PressurehPa hPa 999.9 hPa -
Précipitations: 0.0 mm    
Historical Graphs
 
 
Mesures pour : Juin 29, 2017
Heure Temperature Point de rosée Pression Vent Vitesse du vent Rafales Humidité Pluie (par heure) Conditions
TemperatureC °C DewpointC °C PressurehPa hPa Calm     Humidity % HourlyPrecipMM mm SoftwareType W/m2
00:10 19.5 °C 12.0 °C 999.9 hPa West 9.3 km/h 11.6 km/h 62 % 0.0 mm open2300-1.11 W/m2
01:10 19.3 °C 11.6 °C 1000.2 hPa North 5.6 km/h 5.6 km/h 61 % 0.0 mm open2300-1.11 W/m2
02:11 18.4 °C 11.9 °C 999.9 hPa Calm   13.2 km/h 66 % 0.0 mm open2300-1.11 W/m2
03:10 18.6 °C 12.8 °C 1000.2 hPa NNW 10.3 km/h 12.2 km/h 69 % 0.0 mm open2300-1.11 W/m2
04:10 18.6 °C 13.4 °C 1000.2 hPa SSE 3.4 km/h 11.6 km/h 72 % 0.0 mm open2300-1.11 W/m2
05:11 18.5 °C 12.9 °C 1000.2 hPa NW 9.3 km/h 9.3 km/h 70 % 0.0 mm open2300-1.11 W/m2
06:11 17.9 °C 12.6 °C 1000.9 hPa Calm     71 % 0.0 mm open2300-1.11 W/m2
07:10 18.8 °C 13.4 °C 1001.2 hPa North 6.4 km/h 15 km/h 71 % 0.0 mm open2300-1.11 W/m2
08:10 19.7 °C 13.6 °C 1001.9 hPa NNW 11.6 km/h 16.3 km/h 68 % 0.0 mm open2300-1.11 W/m2
09:10 19.5 °C 13.2 °C 1002.3 hPa NW 47.3 km/h 47.3 km/h 67 % 0.0 mm open2300-1.11 W/m2
10:10 21.2 °C 13.9 °C 1002.6 hPa North 10.3 km/h 54.4 km/h 63 % 0.0 mm open2300-1.11 W/m2
11:11 21.9 °C 13.5 °C 1003.3 hPa NNW 40.7 km/h 40.7 km/h 59 % 0.0 mm open2300-1.11 W/m2
12:11 22.8 °C 13.8 °C 1003.3 hPa West 39.9 km/h 39.9 km/h 56 % 0.0 mm open2300-1.11 W/m2
13:11 22.9 °C 13.3 °C 1003.3 hPa NNE 10.9 km/h 44.6 km/h 56 % 0.0 mm open2300-1.11 W/m2
14:10 23.9 °C 14.0 °C 1003.9 hPa West 37 km/h 37 km/h 54 % 0.0 mm open2300-1.11 W/m2
15:10 23.2 °C 13.1 °C 1003.9 hPa NW 26.2 km/h 26.2 km/h 53 % 0.0 mm open2300-1.11 W/m2
16:10 23.8 °C 13.3 °C 1003.6 hPa WNW 7.6 km/h 18.7 km/h 52 % 0.0 mm open2300-1.11 W/m2
18:10 24.4 °C 13.6 °C 1003.6 hPa West 10.3 km/h 26.2 km/h 51 % 0.0 mm open2300-1.11 W/m2
19:10 23.5 °C 13.3 °C 1003.9 hPa SW 8 km/h 9.8 km/h 53 % 0.0 mm open2300-1.11 W/m2
20:11 22.9 °C 13.3 °C 1003.9 hPa SW 5.6 km/h 5.6 km/h 55 % 0.0 mm open2300-1.11 W/m2
21:10 21.9 °C 13.2 °C 1004.6 hPa Calm   7.6 km/h 58 % 0.0 mm open2300-1.11 W/m2
22:11 21.1 °C 13.1 °C 1005.0 hPa Calm     60 % 0.0 mm open2300-1.11 W/m2
23:11 20.9 °C 13.6 °C 1005.3 hPa NW 14 km/h 14 km/h 63 % 0.0 mm open2300-1.11 W/m2
Observations météo à CASSIS
WU-History script by Weather Underground - 1 mb